• Join FlightAware (Why Join?)
  • Login
  • US Flag 
06:43PM EDT


 

Airport Tracker/Info


-or-


 

Live Flight TrackerFlight Track Log ✈ N373LD ✈ 07-Apr-2014 ✈ KMLS - KCOD

Flight Track Log - Related Links

Times and Time Zones

All times are in EDT time to prevent confusion due to time zone crossing. See the N373LD flight status page for this flight to view local times or setup timezone preferences in your user account.

Time Position Orientation Groundspeed Altitude Reporting Facility
EDT Latitude Longitude Course Direction KTS MPH feet Rate Location/Type
04:20PM 46.3039 -106.1233 223° Southwest 150 173 10,700  Level Salt Lake Center
04:21PM 46.2708 -106.1819 231° Southwest 152 175 12,400 1,440 Climbing Salt Lake Center
04:22PM 46.2425 -106.2356 233° Southwest 162 186 13,700 1,260 Climbing Salt Lake Center
04:23PM 46.1752 -106.2914 229° Southwest  Level FlightAware Approximate
04:23PM 46.2122 -106.2878 230° Southwest 166 191 15,100  Level Salt Lake Center
04:24PM 46.1359 -106.3616 234° Southwest  Level FlightAware Approximate
04:24PM 46.1817 -106.3364 228° Southwest 165 190 16,500  Level Salt Lake Center
04:25PM 46.1503 -106.3911 230° Southwest 171 197 17,700 1,020 Climbing Salt Lake Center
04:26PM 46.1164 -106.4494 230° Southwest 183 211 18,700 1,020 Climbing Salt Lake Center
04:27PM 46.0803 -106.5089 229° Southwest 192 221 19,800 1,140 Climbing Salt Lake Center
04:28PM 46.0431 -106.5722 230° Southwest 202 232 21,100 1,020 Climbing Salt Lake Center
04:29PM 45.9969 -106.6508 230° Southwest 209 241 22,000 420 Climbing Salt Lake Center
04:30PM 45.9519 -106.7258 229° Southwest 239 275 22,000  Level Salt Lake Center
04:31PM 45.9056 -106.8081 231° Southwest 258 297 22,000  Level Salt Lake Center
04:32PM 45.8564 -106.8872 228° Southwest 260 299 22,000  Level Salt Lake Center
04:33PM 45.8078 -106.9683 229° Southwest 264 304 22,000  Level Salt Lake Center
04:34PM 45.7589 -107.0494 229° Southwest 265 305 22,000  Level Salt Lake Center
04:35PM 45.7092 -107.1275 228° Southwest 266 306 22,000  Level Salt Lake Center
04:36PM 45.6494 -107.2281 230° Southwest 275 316 22,000  Level Salt Lake Center
04:37PM 45.6000 -107.3100 229° Southwest 275 316 22,000  Level Salt Lake Center
04:38PM 45.5503 -107.3903 229° Southwest 273 314 22,000  Level Salt Lake Center
04:39PM 45.5006 -107.4731 229° Southwest 275 316 22,000  Level Salt Lake Center
04:40PM 45.4500 -107.5539 228° Southwest 275 316 22,000  Level Salt Lake Center
04:41PM 45.3997 -107.6364 229° Southwest 276 318 22,000  Level Salt Lake Center
04:42PM 45.3494 -107.7164 228° Southwest 275 316 22,000  Level Salt Lake Center
04:43PM 45.2892 -107.8136 229° Southwest 274 315 22,000  Level Salt Lake Center
04:44PM 45.2386 -107.8939 228° Southwest 274 315 22,000  Level Salt Lake Center
04:45PM 45.1892 -107.9744 229° Southwest 274 315 22,000  Level Salt Lake Center
04:46PM 45.1394 -108.0544 229° Southwest 273 314 22,000  Level Salt Lake Center
04:47PM 45.0894 -108.1333 228° Southwest 273 314 22,000  Level Salt Lake Center
04:48PM 45.0417 -108.2131 230° Southwest 270 311 22,000  Level Salt Lake Center
04:50PM 44.9914 -108.2925 228° Southwest 270 311 22,000  Level Salt Lake Center
04:51PM 44.9325 -108.3853 228° Southwest 270 311 22,000  Level Salt Lake Center
04:52PM 44.8833 -108.4631 228° Southwest 270 311 22,000  Level Salt Lake Center
04:53PM 44.8325 -108.5425 228° Southwest 270 311 22,000 -960 Level Salt Lake Center
04:54PM 44.7819 -108.6208 228° Southwest 271 312 20,100 -2,040 Descending Salt Lake Center
04:55PM 44.7328 -108.6969 228° Southwest 270 311 17,900 -2,160 Descending Salt Lake Center
04:56PM 44.6858 -108.7697 228° Southwest 258 297 15,700 -2,160 Descending Salt Lake Center